MSC Carolina — 3ECV5 — position and weather

sailwx.info

Track history (hours):
 
Tides and Currents Weather Stations Pressure Air Temp Water Temp Dewpoint Dewpoint Depression Visibility Wind Speed Wind Dir Waves Ship Positions

MSC Carolina

Last reported at 2014-Oct-31 19:33 UTC. Time now 2014-Oct-31 20:08 UTC.
Position N 39°15' W 076°33'.

Length 275 m; draft 10.2 m.

Type: Ship (hazmat cat B). MMSI: 371475000.

Date/timePositionNaut miles runAvg speedWind from/ knotsBaromVisibWave heightAir tempDewpointWater temp
2014-Oct-31 19:33N 39°15' W 076°33'0 0.0
2014-Oct-31 18:33N 39°15' W 076°33'0 0.0
2014-Oct-31 17:33N 39°15' W 076°33'0 0.0
2014-Oct-31 16:33N 39°15' W 076°33'0 0.0
2014-Oct-31 15:33N 39°15' W 076°33'0 0.0
2014-Oct-31 14:33N 39°15' W 076°33'0 0.0
2014-Oct-31 13:33N 39°15' W 076°33'0 0.0
2014-Oct-31 12:33N 39°15' W 076°33'0 0.0
2014-Oct-31 11:33N 39°15' W 076°33'0 0.0
2014-Oct-31 10:33N 39°15' W 076°33'0 0.0
2014-Oct-31 09:30N 39°15' W 076°33'0 0.0
2014-Oct-31 08:33N 39°15' W 076°33'0 0.0
2014-Oct-31 07:33N 39°15' W 076°33'8 7.9
2014-Oct-31 06:33N 39°10' W 076°25'1313.0
2014-Oct-31 05:33N 38°57' W 076°23'4819.3
2014-Oct-31 03:04N 38°09' W 076°14'1519.6
2014-Oct-31 02:19N 37°55' W 076°09'90 4.1
2014-Oct-30 04:23N 39°16' W 075°20'1417.5
2014-Oct-30 03:33N 39°27' W 075°33'1312.8
2014-Oct-30 02:33N 39°39' W 075°33'1212.0
2014-Oct-30 01:34N 39°49' W 075°24'1110.7
2014-Oct-30 00:33N 39°53' W 075°11'1 0.1
2014-Oct-29 12:26N 39°53' W 075°09'8 8.5
2014-Oct-29 11:33N 39°51' W 075°18'1111.2
2014-Oct-29 10:33N 39°44' W 075°30'1212.2
2014-Oct-29 09:33N 39°32' W 075°33'1616.3
2014-Oct-29 08:33N 39°18' W 075°23'1817.1
2014-Oct-29 07:32N 39°03' W 075°10'3711.7
2014-Oct-29 04:19N 38°50' W 074°25'1418.6
2014-Oct-29 03:33N 38°54' W 074°08'1717.1
2014-Oct-29 02:33N 39°01' W 073°47'1716.8
2014-Oct-29 01:33N 39°05' W 073°26'1514.9
2014-Oct-29 00:33N 39°10' W 073°08'1515.0
2014-Oct-28 23:33N 39°14' W 072°49'7 7.0
2014-Oct-28 22:33N 39°16' W 072°41'1 1.0
2014-Oct-28 21:33N 39°15' W 072°42'1 1.2
2014-Oct-28 20:33N 39°15' W 072°43'2 1.6
2014-Oct-28 19:33N 39°15' W 072°45'2 1.8
2014-Oct-28 18:33N 39°15' W 072°48'2 1.8
2014-Oct-28 17:33N 39°14' W 072°50'2 1.9
2014-Oct-28 16:31N 39°14' W 072°52'2 2.0
2014-Oct-28 15:33N 39°13' W 072°55'2 2.0
2014-Oct-28 14:33N 39°12' W 072°57'2 2.0
2014-Oct-28 13:33N 39°11' W 072°59'2 1.7
2014-Oct-28 12:33N 39°09' W 072°60'1 1.3
2014-Oct-28 11:33N 39°08' W 073°01'1 0.9
2014-Oct-28 10:33N 39°07' W 073°01'1 0.6
2014-Oct-28 09:33N 39°07' W 073°02'1 0.7
2014-Oct-28 08:33N 39°07' W 073°03'1 0.7
2014-Oct-28 07:33N 39°07' W 073°04'1 0.7
2014-Oct-28 06:33N 39°08' W 073°05'1 0.9
2014-Oct-28 05:33N 39°08' W 073°06'1 0.9
2014-Oct-28 04:33N 39°08' W 073°07'1 1.1
2014-Oct-28 03:33N 39°09' W 073°08'1 1.1
2014-Oct-28 02:32N 39°09' W 073°10'3 1.1
2014-Oct-28 00:07N 39°10' W 073°13'1 1.1
2014-Oct-27 23:31N 39°10' W 073°13'34 8.2
2014-Oct-27 19:27N 39°23' W 072°33'2319.7
2014-Oct-27 18:18N 39°31' W 072°06'1719.7
2014-Oct-27 17:26N 39°36' W 071°45'1719.4
2014-Oct-27 16:32N 39°41' W 071°23'2019.3
2014-Oct-27 15:30N 39°46' W 070°58'15712.1
2014-Oct-27 02:33N 42°22' W 070°48'5 0.2
2014-Oct-26 02:21N 42°23' W 070°55'6 7.7
2014-Oct-26 01:33N 42°23' W 070°46'2512.5
2014-Oct-25 23:33N 42°20' W 070°13'3012.9
2014-Oct-25 21:12N 41°58' W 069°45'914.0
2014-Oct-25 20:33N 41°50' W 069°40'1413.6
2014-Oct-25 19:33N 41°38' W 069°31'1313.1
2014-Oct-25 18:33N 41°26' W 069°24'1313.4
2014-Oct-25 17:33N 41°14' W 069°16'1212.4
2014-Oct-25 16:33N 41°03' W 069°08'1312.9
2014-Oct-25 15:33N 40°51' W 069°01'1313.4
2014-Oct-25 14:33N 40°38' W 068°56'1311.8
2014-Oct-25 13:29N 40°30' W 069°08'1413.0
2014-Oct-25 12:25N 40°27' W 069°26'1113.1
2014-Oct-25 11:33N 40°26' W 069°40'1513.2
2014-Oct-25 10:24N 40°26' W 070°00'6312.9
2014-Oct-25 05:31N 40°24' W 071°23'1313.2
2014-Oct-25 04:33N 40°24' W 071°40'1313.1
2014-Oct-25 03:33N 40°23' W 071°57'1313.3
2014-Oct-25 02:33N 40°23' W 072°14'1413.5
2014-Oct-25 01:32N 40°23' W 072°33'1313.5
2014-Oct-25 00:33N 40°22' W 072°50'2912.8
2014-Oct-24 22:16N 40°24' W 073°28'2112.1
2014-Oct-24 20:33N 40°29' W 073°55'1313.4
2014-Oct-24 19:33N 40°39' W 074°07'3 2.7
2014-Oct-24 18:33N 40°41' W 074°09'0 0.0
2014-Oct-24 17:33N 40°41' W 074°09'0 0.0
2014-Oct-24 16:33N 40°41' W 074°09'0 0.0
2014-Oct-24 15:33N 40°41' W 074°09'0 0.0
2014-Oct-24 14:33N 40°41' W 074°09'0 0.0
2014-Oct-24 13:33N 40°41' W 074°09'0 0.0
2014-Oct-24 12:33N 40°41' W 074°09'0 0.0
2014-Oct-24 11:30N 40°41' W 074°09'0 0.0
2014-Oct-24 10:30N 40°41' W 074°09'0 0.0
2014-Oct-24 09:33N 40°41' W 074°09'0 0.0
2014-Oct-24 08:33N 40°41' W 074°09'0 0.0
2014-Oct-24 07:33N 40°41' W 074°09'0 0.0
2014-Oct-24 06:33N 40°41' W 074°09'0 0.0
2014-Oct-24 05:33N 40°41' W 074°09'0 0.0
2014-Oct-24 04:33N 40°41' W 074°09'0 0.0
2014-Oct-24 03:33N 40°41' W 074°09'0 0.0
2014-Oct-24 02:27N 40°41' W 074°09'0 0.0
2014-Oct-24 01:33N 40°41' W 074°09'0 0.0
2014-Oct-24 00:33N 40°41' W 074°09'0 0.0
2014-Oct-23 23:33N 40°41' W 074°09'0 0.0
2014-Oct-23 22:30N 40°41' W 074°09'0 0.0
2014-Oct-23 21:33N 40°41' W 074°09'0 0.2
2014-Oct-23 20:33N 40°41' W 074°09'4 3.8
2014-Oct-23 19:33N 40°39' W 074°04'8 8.0
2014-Oct-23 18:33N 40°32' W 074°01'1313.4
2014-Oct-23 17:33N 40°27' W 073°44'3511.4
2014-Oct-23 14:28N 40°30' W 072°58'1412.9
2014-Oct-23 13:22N 40°30' W 072°39'1113.3
2014-Oct-23 12:33N 40°31' W 072°25'1615.9
2014-Oct-23 11:33N 40°31' W 072°04'1413.7
2014-Oct-23 10:34N 40°31' W 071°46'1413.7
2014-Oct-23 09:33N 40°32' W 071°28'1413.6
2014-Oct-23 08:33N 40°32' W 071°10'1413.7
2014-Oct-23 07:32N 40°33' W 070°52'1313.5
2014-Oct-23 06:33N 40°33' W 070°34'1413.7
2014-Oct-23 05:33N 40°33' W 070°16'1513.7
2014-Oct-23 04:27N 40°34' W 069°56'1513.4
2014-Oct-23 03:18N 40°34' W 069°36'  
Track history (hours):
 
Tides and Currents Weather Stations Pressure Air Temp Water Temp Dewpoint Dewpoint Depression Visibility Wind Speed Wind Dir Waves Ship Positions

MSC Carolina

Last reported at 2014-Oct-31 19:33 UTC. Time now 2014-Oct-31 20:08 UTC.
Position N 39°15' W 076°33'.

Length 275 m; draft 10.2 m.

Type: Ship (hazmat cat B). MMSI: 371475000.

Date/timePositionNaut miles runAvg speedWind from/ knotsBaromVisibWave heightAir tempDewpointWater temp
2014-Oct-31 19:33N 39°15' W 076°33'0 0.0
2014-Oct-31 18:33N 39°15' W 076°33'0 0.0
2014-Oct-31 17:33N 39°15' W 076°33'0 0.0
2014-Oct-31 16:33N 39°15' W 076°33'0 0.0
2014-Oct-31 15:33N 39°15' W 076°33'0 0.0
2014-Oct-31 14:33N 39°15' W 076°33'0 0.0
2014-Oct-31 13:33N 39°15' W 076°33'0 0.0
2014-Oct-31 12:33N 39°15' W 076°33'0 0.0
2014-Oct-31 11:33N 39°15' W 076°33'0 0.0
2014-Oct-31 10:33N 39°15' W 076°33'0 0.0
2014-Oct-31 09:30N 39°15' W 076°33'0 0.0
2014-Oct-31 08:33N 39°15' W 076°33'0 0.0
2014-Oct-31 07:33N 39°15' W 076°33'8 7.9
2014-Oct-31 06:33N 39°10' W 076°25'1313.0
2014-Oct-31 05:33N 38°57' W 076°23'4819.3
2014-Oct-31 03:04N 38°09' W 076°14'1519.6
2014-Oct-31 02:19N 37°55' W 076°09'90 4.1
2014-Oct-30 04:23N 39°16' W 075°20'1417.5
2014-Oct-30 03:33N 39°27' W 075°33'1312.8
2014-Oct-30 02:33N 39°39' W 075°33'1212.0
2014-Oct-30 01:34N 39°49' W 075°24'1110.7
2014-Oct-30 00:33N 39°53' W 075°11'1 0.1
2014-Oct-29 12:26N 39°53' W 075°09'8 8.5
2014-Oct-29 11:33N 39°51' W 075°18'1111.2
2014-Oct-29 10:33N 39°44' W 075°30'1212.2
2014-Oct-29 09:33N 39°32' W 075°33'1616.3
2014-Oct-29 08:33N 39°18' W 075°23'1817.1
2014-Oct-29 07:32N 39°03' W 075°10'3711.7
2014-Oct-29 04:19N 38°50' W 074°25'1418.6
2014-Oct-29 03:33N 38°54' W 074°08'1717.1
2014-Oct-29 02:33N 39°01' W 073°47'1716.8
2014-Oct-29 01:33N 39°05' W 073°26'1514.9
2014-Oct-29 00:33N 39°10' W 073°08'1515.0
2014-Oct-28 23:33N 39°14' W 072°49'7 7.0
2014-Oct-28 22:33N 39°16' W 072°41'1 1.0
2014-Oct-28 21:33N 39°15' W 072°42'1 1.2
2014-Oct-28 20:33N 39°15' W 072°43'2 1.6
2014-Oct-28 19:33N 39°15' W 072°45'2 1.8
2014-Oct-28 18:33N 39°15' W 072°48'2 1.8
2014-Oct-28 17:33N 39°14' W 072°50'2 1.9
2014-Oct-28 16:31N 39°14' W 072°52'2 2.0
2014-Oct-28 15:33N 39°13' W 072°55'2 2.0
2014-Oct-28 14:33N 39°12' W 072°57'2 2.0
2014-Oct-28 13:33N 39°11' W 072°59'2 1.7
2014-Oct-28 12:33N 39°09' W 072°60'1 1.3
2014-Oct-28 11:33N 39°08' W 073°01'1 0.9
2014-Oct-28 10:33N 39°07' W 073°01'1 0.6
2014-Oct-28 09:33N 39°07' W 073°02'1 0.7
2014-Oct-28 08:33N 39°07' W 073°03'1 0.7
2014-Oct-28 07:33N 39°07' W 073°04'1 0.7
2014-Oct-28 06:33N 39°08' W 073°05'1 0.9
2014-Oct-28 05:33N 39°08' W 073°06'1 0.9
2014-Oct-28 04:33N 39°08' W 073°07'1 1.1
2014-Oct-28 03:33N 39°09' W 073°08'1 1.1
2014-Oct-28 02:32N 39°09' W 073°10'3 1.1
2014-Oct-28 00:07N 39°10' W 073°13'1 1.1
2014-Oct-27 23:31N 39°10' W 073°13'34 8.2
2014-Oct-27 19:27N 39°23' W 072°33'2319.7
2014-Oct-27 18:18N 39°31' W 072°06'1719.7
2014-Oct-27 17:26N 39°36' W 071°45'1719.4
2014-Oct-27 16:32N 39°41' W 071°23'2019.3
2014-Oct-27 15:30N 39°46' W 070°58'15712.1
2014-Oct-27 02:33N 42°22' W 070°48'5 0.2
2014-Oct-26 02:21N 42°23' W 070°55'6 7.7
2014-Oct-26 01:33N 42°23' W 070°46'2512.5
2014-Oct-25 23:33N 42°20' W 070°13'3012.9
2014-Oct-25 21:12N 41°58' W 069°45'914.0
2014-Oct-25 20:33N 41°50' W 069°40'1413.6
2014-Oct-25 19:33N 41°38' W 069°31'1313.1
2014-Oct-25 18:33N 41°26' W 069°24'1313.4
2014-Oct-25 17:33N 41°14' W 069°16'1212.4
2014-Oct-25 16:33N 41°03' W 069°08'1312.9
2014-Oct-25 15:33N 40°51' W 069°01'1313.4
2014-Oct-25 14:33N 40°38' W 068°56'1311.8
2014-Oct-25 13:29N 40°30' W 069°08'1413.0
2014-Oct-25 12:25N 40°27' W 069°26'1113.1
2014-Oct-25 11:33N 40°26' W 069°40'1513.2
2014-Oct-25 10:24N 40°26' W 070°00'6312.9
2014-Oct-25 05:31N 40°24' W 071°23'1313.2
2014-Oct-25 04:33N 40°24' W 071°40'1313.1
2014-Oct-25 03:33N 40°23' W 071°57'1313.3
2014-Oct-25 02:33N 40°23' W 072°14'1413.5
2014-Oct-25 01:32N 40°23' W 072°33'1313.5
2014-Oct-25 00:33N 40°22' W 072°50'2912.8
2014-Oct-24 22:16N 40°24' W 073°28'2112.1
2014-Oct-24 20:33N 40°29' W 073°55'1313.4
2014-Oct-24 19:33N 40°39' W 074°07'3 2.7
2014-Oct-24 18:33N 40°41' W 074°09'0 0.0
2014-Oct-24 17:33N 40°41' W 074°09'0 0.0
2014-Oct-24 16:33N 40°41' W 074°09'0 0.0
2014-Oct-24 15:33N 40°41' W 074°09'0 0.0
2014-Oct-24 14:33N 40°41' W 074°09'0 0.0
2014-Oct-24 13:33N 40°41' W 074°09'0 0.0
2014-Oct-24 12:33N 40°41' W 074°09'0 0.0
2014-Oct-24 11:30N 40°41' W 074°09'0 0.0
2014-Oct-24 10:30N 40°41' W 074°09'0 0.0
2014-Oct-24 09:33N 40°41' W 074°09'0 0.0
2014-Oct-24 08:33N 40°41' W 074°09'0 0.0
2014-Oct-24 07:33N 40°41' W 074°09'0 0.0
2014-Oct-24 06:33N 40°41' W 074°09'0 0.0
2014-Oct-24 05:33N 40°41' W 074°09'0 0.0
2014-Oct-24 04:33N 40°41' W 074°09'0 0.0
2014-Oct-24 03:33N 40°41' W 074°09'0 0.0
2014-Oct-24 02:27N 40°41' W 074°09'0 0.0
2014-Oct-24 01:33N 40°41' W 074°09'0 0.0
2014-Oct-24 00:33N 40°41' W 074°09'0 0.0
2014-Oct-23 23:33N 40°41' W 074°09'0 0.0
2014-Oct-23 22:30N 40°41' W 074°09'0 0.0
2014-Oct-23 21:33N 40°41' W 074°09'0 0.2
2014-Oct-23 20:33N 40°41' W 074°09'4 3.8
2014-Oct-23 19:33N 40°39' W 074°04'8 8.0
2014-Oct-23 18:33N 40°32' W 074°01'1313.4
2014-Oct-23 17:33N 40°27' W 073°44'3511.4
2014-Oct-23 14:28N 40°30' W 072°58'1412.9
2014-Oct-23 13:22N 40°30' W 072°39'1113.3
2014-Oct-23 12:33N 40°31' W 072°25'1615.9
2014-Oct-23 11:33N 40°31' W 072°04'1413.7
2014-Oct-23 10:34N 40°31' W 071°46'1413.7
2014-Oct-23 09:33N 40°32' W 071°28'1413.6
2014-Oct-23 08:33N 40°32' W 071°10'1413.7
2014-Oct-23 07:32N 40°33' W 070°52'1313.5
2014-Oct-23 06:33N 40°33' W 070°34'1413.7
2014-Oct-23 05:33N 40°33' W 070°16'1513.7
2014-Oct-23 04:27N 40°34' W 069°56'1513.4
2014-Oct-23 03:18N 40°34' W 069°36'  

Dump ship's entire track history